createdAt,value
2022-10-28T00:00:30.552Z,7.19
2022-10-28T00:03:00.191Z,7.27
2022-10-28T00:05:26.711Z,7.18
2022-10-28T00:07:53.394Z,7.14
2022-10-28T00:10:20.033Z,7.21
2022-10-28T00:12:46.460Z,7.13
2022-10-28T00:15:12.840Z,7.11
2022-10-28T00:17:39.287Z,7.16
2022-10-28T00:20:06.256Z,7.17
2022-10-28T00:22:32.646Z,7.19
2022-10-28T00:24:59.020Z,7.03
2022-10-28T00:27:25.423Z,7.22
2022-10-28T00:29:51.817Z,7.11
2022-10-28T00:32:18.226Z,7.14
2022-10-28T00:34:44.616Z,7.06
2022-10-28T00:37:11.056Z,7.07
2022-10-28T00:39:37.475Z,7.15
2022-10-28T00:42:04.348Z,7.37
2022-10-28T00:44:47.943Z,7.42
2022-10-28T00:47:33.625Z,7.22
2022-10-28T00:50:05.844Z,7.37
2022-10-28T00:52:32.690Z,7.29
2022-10-28T00:55:01.619Z,7.38
2022-10-28T00:57:33.536Z,7.43
2022-10-28T01:00:01.692Z,7.46
2022-10-28T01:02:28.697Z,7.45
2022-10-28T01:04:55.307Z,7.33
2022-10-28T01:07:22.288Z,7.19
2022-10-28T01:09:48.938Z,7.26
2022-10-28T01:12:39.478Z,7.43
2022-10-28T01:15:24.776Z,7.43
2022-10-28T01:18:08.112Z,7.39
2022-10-28T01:21:01.202Z,7.33
2022-10-28T01:23:33.643Z,7.27
2022-10-28T01:26:15.260Z,7.27
2022-10-28T01:29:03.262Z,7.29
2022-10-28T01:31:49.919Z,7.18
2022-10-28T01:34:25.472Z,7.20
2022-10-28T01:36:57.873Z,7.24
2022-10-28T01:39:31.675Z,7.21
2022-10-28T01:42:07.135Z,7.44
2022-10-28T01:44:59.180Z,7.48
2022-10-28T01:47:41.139Z,7.48
2022-10-28T01:50:15.091Z,7.55
2022-10-28T01:52:44.044Z,7.49
2022-10-28T01:55:31.441Z,7.40
2022-10-28T01:58:00.642Z,7.28
2022-10-28T02:00:27.756Z,7.06
2022-10-28T02:02:55.868Z,7.31
2022-10-28T02:05:40.765Z,7.43
2022-10-28T02:08:28.557Z,7.47
2022-10-28T02:11:00.953Z,7.32
2022-10-28T02:13:47.649Z,7.30
2022-10-28T02:16:23.854Z,7.26
2022-10-28T02:19:41.388Z,7.06
2022-10-28T02:22:13.879Z,7.00
2022-10-28T02:24:45.879Z,7.16
2022-10-28T02:27:28.364Z,7.26
2022-10-28T02:30:03.863Z,7.00
2022-10-28T02:32:34.777Z,7.14
2022-10-28T02:35:03.635Z,7.10
2022-10-28T02:37:35.504Z,7.10
2022-10-28T02:40:11.618Z,7.04
2022-10-28T02:42:44.284Z,7.14
2022-10-28T02:45:16.332Z,7.08
2022-10-28T02:47:55.690Z,7.22
2022-10-28T02:50:28.727Z,7.23
2022-10-28T02:52:58.656Z,7.22
2022-10-28T02:55:32.482Z,7.32
2022-10-28T02:57:59.492Z,7.21
2022-10-28T03:00:26.389Z,7.25
2022-10-28T03:02:52.800Z,7.21
2022-10-28T03:05:20.100Z,7.31
2022-10-28T03:07:49.599Z,7.11
2022-10-28T03:10:16.069Z,6.83
2022-10-28T03:12:42.563Z,7.04
2022-10-28T03:15:09.425Z,7.17
2022-10-28T03:17:35.861Z,7.09
2022-10-28T03:20:02.268Z,7.01
2022-10-28T03:22:28.774Z,7.01
2022-10-28T03:24:55.219Z,7.08
2022-10-28T03:27:21.591Z,7.42
2022-10-28T03:29:47.984Z,7.27
2022-10-28T03:32:14.496Z,7.07
2022-10-28T03:34:41.085Z,7.00
2022-10-28T03:37:07.560Z,7.07
2022-10-28T03:39:34.008Z,7.08
2022-10-28T03:42:00.557Z,7.11
2022-10-28T03:44:27.093Z,6.90
2022-10-28T03:46:53.560Z,6.82
2022-10-28T03:49:19.950Z,6.85
2022-10-28T03:51:46.375Z,6.88
2022-10-28T03:54:12.763Z,6.94
2022-10-28T03:56:40.568Z,6.89
2022-10-28T03:59:10.004Z,6.93
2022-10-28T04:01:36.499Z,6.77
2022-10-28T04:04:03.147Z,6.84
2022-10-28T04:06:29.548Z,6.82
2022-10-28T04:08:56.079Z,6.58
2022-10-28T04:11:28.434Z,6.69
2022-10-28T04:13:54.822Z,6.76
2022-10-28T04:16:21.212Z,6.82
2022-10-28T04:18:47.672Z,6.66
2022-10-28T04:21:14.068Z,6.41
2022-10-28T04:23:40.467Z,6.56
2022-10-28T04:26:06.905Z,6.66
2022-10-28T04:28:33.342Z,6.72
2022-10-28T04:30:59.884Z,6.79
2022-10-28T04:33:27.273Z,6.63
2022-10-28T04:35:53.695Z,6.60
2022-10-28T04:38:20.192Z,6.67
2022-10-28T04:40:48.666Z,6.70
2022-10-28T04:43:15.664Z,6.78
2022-10-28T04:45:42.084Z,6.68
2022-10-28T04:48:10.497Z,6.52
2022-10-28T04:50:36.931Z,6.54
2022-10-28T04:53:03.411Z,6.58
2022-10-28T04:55:30.052Z,6.74
2022-10-28T04:58:06.486Z,6.65
2022-10-28T05:00:32.946Z,6.65
2022-10-28T05:03:03.141Z,6.62
2022-10-28T05:05:29.640Z,6.68
2022-10-28T05:07:56.916Z,6.91
2022-10-28T05:10:23.649Z,6.91
2022-10-28T05:12:50.050Z,6.85
2022-10-28T05:15:16.498Z,6.85
2022-10-28T05:17:44.446Z,6.74
2022-10-28T05:20:13.274Z,6.70
2022-10-28T05:22:45.583Z,6.67
2022-10-28T05:25:11.958Z,6.17
2022-10-28T05:27:38.371Z,6.48
2022-10-28T05:30:05.430Z,6.71
2022-10-28T05:32:31.874Z,6.81
2022-10-28T05:34:58.336Z,6.55
2022-10-28T05:37:24.715Z,6.68
2022-10-28T05:39:51.190Z,6.62
2022-10-28T05:42:17.631Z,6.23
2022-10-28T05:44:44.088Z,6.37
2022-10-28T05:47:10.511Z,6.48
2022-10-28T05:49:36.912Z,6.49
2022-10-28T05:52:04.473Z,6.47
2022-10-28T05:54:30.888Z,6.50
2022-10-28T05:56:57.310Z,6.17
2022-10-28T05:59:23.755Z,6.36
2022-10-28T06:01:50.269Z,6.25
2022-10-28T06:04:16.796Z,6.27
2022-10-28T06:06:43.269Z,6.39
2022-10-28T06:09:09.691Z,6.52
2022-10-28T06:11:34.622Z,6.51
2022-10-28T06:14:02.020Z,6.66
2022-10-28T06:16:28.426Z,6.44
2022-10-28T06:18:54.832Z,6.42
2022-10-28T06:21:21.229Z,6.33
2022-10-28T06:23:47.695Z,6.62
2022-10-28T06:26:14.088Z,6.69
2022-10-28T06:28:45.728Z,6.93
2022-10-28T06:31:12.114Z,6.87
2022-10-28T06:33:38.542Z,7.20
2022-10-28T06:36:05.439Z,7.17
2022-10-28T06:38:31.840Z,7.44
2022-10-28T06:40:58.464Z,7.38
2022-10-28T06:43:25.148Z,7.43
2022-10-28T06:45:55.259Z,7.73
2022-10-28T06:48:24.142Z,7.68
2022-10-28T06:50:50.694Z,7.74
2022-10-28T06:53:17.242Z,8.12
2022-10-28T06:55:48.666Z,8.12
2022-10-28T06:58:15.341Z,8.56
2022-10-28T07:00:41.791Z,8.69
2022-10-28T07:03:09.653Z,8.82
2022-10-28T07:05:36.164Z,8.91
2022-10-28T07:08:02.607Z,9.06
2022-10-28T07:10:29.045Z,9.19
2022-10-28T07:12:55.878Z,9.25
2022-10-28T07:15:22.666Z,9.37
2022-10-28T07:17:56.722Z,9.56
2022-10-28T07:20:25.291Z,9.71
2022-10-28T07:22:59.498Z,9.86
2022-10-28T07:25:30.590Z,9.87
2022-10-28T07:27:58.379Z,10.37
2022-10-28T07:30:25.721Z,10.46
2022-10-28T07:32:52.575Z,10.40
2022-10-28T07:35:20.169Z,10.57
2022-10-28T07:37:47.084Z,10.51
2022-10-28T07:40:14.101Z,10.60
2022-10-28T07:42:40.494Z,10.49
2022-10-28T07:45:07.215Z,10.97
2022-10-28T07:47:33.640Z,11.17
2022-10-28T07:50:00.055Z,11.32
2022-10-28T07:52:26.514Z,11.25
2022-10-28T07:54:52.998Z,11.47
2022-10-28T07:57:19.473Z,11.57
2022-10-28T07:59:45.888Z,11.88
2022-10-28T08:02:18.272Z,12.03
2022-10-28T08:04:44.677Z,12.23
2022-10-28T08:07:11.899Z,12.26
2022-10-28T08:09:38.592Z,12.39
2022-10-28T08:12:06.022Z,12.49
2022-10-28T08:14:32.527Z,12.44
2022-10-28T08:16:59.036Z,12.77
2022-10-28T08:19:25.563Z,12.90
2022-10-28T08:21:51.967Z,13.07
2022-10-28T08:24:18.363Z,12.99
2022-10-28T08:26:44.793Z,13.61
2022-10-28T08:29:12.134Z,13.85
2022-10-28T08:31:39.362Z,13.97
2022-10-28T08:34:06.739Z,14.31
2022-10-28T08:36:33.874Z,14.53
2022-10-28T08:39:01.622Z,14.59
2022-10-28T08:41:59.814Z,14.46
2022-10-28T08:44:46.573Z,14.86
2022-10-28T08:47:18.961Z,14.94
2022-10-28T08:49:50.245Z,14.18
2022-10-28T08:52:35.239Z,15.12
2022-10-28T08:55:11.601Z,15.31
2022-10-28T08:57:44.301Z,15.53
2022-10-28T09:00:22.157Z,15.79
2022-10-28T09:03:11.598Z,16.06
2022-10-28T09:05:39.795Z,15.91
2022-10-28T09:08:07.041Z,16.24
2022-10-28T09:10:55.836Z,16.36
2022-10-28T09:13:56.164Z,16.48
2022-10-28T09:17:00.814Z,16.50
2022-10-28T09:19:48.062Z,16.64
2022-10-28T09:22:46.026Z,16.70
2022-10-28T09:25:48.815Z,16.75
2022-10-28T09:28:24.342Z,16.95
2022-10-28T09:31:02.180Z,16.95
2022-10-28T09:33:34.739Z,17.20
2022-10-28T09:36:03.992Z,17.33
2022-10-28T09:38:33.439Z,17.70
2022-10-28T09:41:03.115Z,17.18
2022-10-28T09:43:35.267Z,17.51
2022-10-28T09:46:16.702Z,17.67
2022-10-28T09:48:55.688Z,17.63
2022-10-28T09:51:44.929Z,17.82
2022-10-28T09:54:13.286Z,17.91
2022-10-28T09:56:40.700Z,18.00
2022-10-28T09:59:08.184Z,18.04
2022-10-28T10:01:37.965Z,18.42
2022-10-28T10:04:17.709Z,18.27
2022-10-28T10:06:47.138Z,18.19
2022-10-28T10:09:23.639Z,18.33
2022-10-28T10:11:50.737Z,18.14
2022-10-28T10:14:21.726Z,18.02
2022-10-28T10:16:55.155Z,17.97
2022-10-28T10:19:21.651Z,17.57
2022-10-28T10:21:52.398Z,17.87
2022-10-28T10:24:30.573Z,18.05
2022-10-28T10:27:00.531Z,17.91
2022-10-28T10:29:28.583Z,18.22
2022-10-28T10:32:15.271Z,18.02
2022-10-28T10:34:57.963Z,18.27
2022-10-28T10:37:24.588Z,18.00
2022-10-28T10:40:12.294Z,18.34
2022-10-28T10:42:46.585Z,18.43
2022-10-28T10:45:27.601Z,18.73
2022-10-28T10:48:26.960Z,19.17
2022-10-28T10:50:54.596Z,19.64
2022-10-28T10:53:25.091Z,19.75
2022-10-28T10:55:55.150Z,19.95
2022-10-28T10:58:25.210Z,20.25
2022-10-28T11:00:54.454Z,20.20
2022-10-28T11:03:28.166Z,20.64
2022-10-28T11:06:18.304Z,20.90
2022-10-28T11:08:44.320Z,21.03
2022-10-28T11:11:21.888Z,21.33
2022-10-28T11:14:01.654Z,21.35
2022-10-28T11:16:28.069Z,21.51
2022-10-28T11:18:54.521Z,21.45
2022-10-28T11:21:42.974Z,21.66
2022-10-28T11:24:25.346Z,22.00
2022-10-28T11:27:05.342Z,21.94
2022-10-28T11:29:32.897Z,21.71
2022-10-28T11:32:17.409Z,21.72
2022-10-28T11:35:03.081Z,21.58
2022-10-28T11:37:47.688Z,21.53
2022-10-28T11:40:30.798Z,21.53
2022-10-28T11:43:16.203Z,21.06
2022-10-28T11:46:12.623Z,20.84
2022-10-28T11:49:27.123Z,20.94
2022-10-28T11:52:18.467Z,21.18
2022-10-28T11:55:07.807Z,21.02
2022-10-28T11:57:49.148Z,21.33
2022-10-28T12:00:43.007Z,21.65
2022-10-28T12:03:28.548Z,21.80
2022-10-28T12:06:28.946Z,22.00
2022-10-28T12:09:04.156Z,22.28
2022-10-28T12:11:33.643Z,22.32
2022-10-28T12:14:22.177Z,22.41
2022-10-28T12:16:52.643Z,22.45
2022-10-28T12:19:32.289Z,22.59
2022-10-28T12:22:13.072Z,22.63
2022-10-28T12:24:44.135Z,22.72
2022-10-28T12:27:34.047Z,22.81
2022-10-28T12:30:07.490Z,22.30
2022-10-28T12:32:37.234Z,22.48
2022-10-28T12:35:27.076Z,22.43
2022-10-28T12:38:06.708Z,22.56
2022-10-28T12:40:44.733Z,22.46
2022-10-28T12:43:24.186Z,22.80
2022-10-28T12:45:54.971Z,22.67
2022-10-28T12:48:31.302Z,22.58
2022-10-28T12:51:09.424Z,22.71
2022-10-28T12:53:38.407Z,22.91
2022-10-28T12:56:12.335Z,23.03
2022-10-28T12:58:47.889Z,22.82
2022-10-28T13:01:18.409Z,22.83
2022-10-28T13:03:45.240Z,22.87
2022-10-28T13:06:45.380Z,23.07
2022-10-28T13:09:39.963Z,22.91
2022-10-28T13:12:36.038Z,23.14
2022-10-28T13:15:12.937Z,23.08
2022-10-28T13:17:57.397Z,22.91
2022-10-28T13:20:53.857Z,23.15
2022-10-28T13:23:20.297Z,23.29
2022-10-28T13:26:07.690Z,23.07
2022-10-28T13:28:36.681Z,23.43
2022-10-28T13:31:08.054Z,23.26
2022-10-28T13:33:36.818Z,23.25
2022-10-28T13:36:16.390Z,23.37
2022-10-28T13:38:48.739Z,23.29
2022-10-28T13:41:29.212Z,23.43
2022-10-28T13:43:56.871Z,23.53
2022-10-28T13:46:57.253Z,23.50
2022-10-28T13:49:35.124Z,23.44
2022-10-28T13:52:18.192Z,23.49
2022-10-28T13:54:44.590Z,23.61
2022-10-28T13:57:23.747Z,23.60
2022-10-28T14:02:59.363Z,23.60
2022-10-28T14:05:38.305Z,23.66
2022-10-28T14:08:31.043Z,23.67
2022-10-28T14:11:28.291Z,23.82
2022-10-28T14:14:01.523Z,23.71
2022-10-28T14:16:35.037Z,23.58
2022-10-28T14:19:15.050Z,23.61
2022-10-28T14:21:50.171Z,23.21
2022-10-28T14:24:37.553Z,23.10
2022-10-28T14:27:03.907Z,23.13
2022-10-28T14:29:30.334Z,23.14
2022-10-28T14:31:56.842Z,23.15
2022-10-28T14:34:33.990Z,23.34
2022-10-28T14:37:18.583Z,23.06
2022-10-28T14:40:01.857Z,22.91
2022-10-28T14:43:11.638Z,22.71
2022-10-28T14:45:44.770Z,22.45
2022-10-28T14:48:32.374Z,22.20
2022-10-28T14:51:01.926Z,22.01
2022-10-28T14:53:32.298Z,22.03
2022-10-28T14:56:09.485Z,21.72
2022-10-28T14:58:44.214Z,21.79
2022-10-28T15:01:16.461Z,21.64
2022-10-28T15:03:45.809Z,21.78
2022-10-28T15:06:25.600Z,21.60
2022-10-28T15:08:54.011Z,21.26
2022-10-28T15:11:21.411Z,21.14
2022-10-28T15:13:53.037Z,21.08
2022-10-28T15:16:24.343Z,20.96
2022-10-28T15:18:53.823Z,21.15
2022-10-28T15:21:22.198Z,20.76
2022-10-28T15:24:02.166Z,20.33
2022-10-28T15:26:28.716Z,20.10
2022-10-28T15:28:55.788Z,19.86
2022-10-28T15:31:22.245Z,19.64
2022-10-28T15:33:48.752Z,19.35
2022-10-28T15:36:18.707Z,19.79
2022-10-28T15:39:06.556Z,19.39
2022-10-28T15:41:44.268Z,19.21
2022-10-28T15:44:31.218Z,19.06
2022-10-28T15:46:58.454Z,18.79
2022-10-28T15:49:40.298Z,18.69
2022-10-28T15:52:18.905Z,18.45
2022-10-28T15:55:03.485Z,17.96
2022-10-28T15:57:45.813Z,18.03
2022-10-28T16:00:19.604Z,18.07
2022-10-28T16:02:56.783Z,17.78
2022-10-28T16:05:32.660Z,17.25
2022-10-28T16:08:01.677Z,17.07
2022-10-28T16:10:42.891Z,16.87
2022-10-28T16:13:25.744Z,17.04
2022-10-28T16:15:59.545Z,16.64
2022-10-28T16:18:28.337Z,16.47
2022-10-28T16:20:56.344Z,16.57
2022-10-28T16:23:26.098Z,16.70
2022-10-28T16:25:52.487Z,16.30
2022-10-28T16:28:26.818Z,16.17
2022-10-28T16:30:59.272Z,16.04
2022-10-28T16:33:34.026Z,16.26
2022-10-28T16:36:02.461Z,16.11
2022-10-28T16:38:31.069Z,15.84
2022-10-28T16:40:59.610Z,15.54
2022-10-28T16:43:27.697Z,15.47
2022-10-28T16:45:57.633Z,15.26
2022-10-28T16:48:26.604Z,15.00
2022-10-28T16:50:55.804Z,14.89
2022-10-28T16:53:23.304Z,14.55
2022-10-28T16:55:49.909Z,14.68
2022-10-28T16:58:16.742Z,14.62
2022-10-28T17:00:43.908Z,14.38
2022-10-28T17:03:17.343Z,14.13
2022-10-28T17:05:44.027Z,14.19
2022-10-28T17:08:11.466Z,14.28
2022-10-28T17:10:40.362Z,14.15
2022-10-28T17:13:14.381Z,14.38
2022-10-28T17:15:41.534Z,14.01
2022-10-28T17:18:10.890Z,14.11
2022-10-28T17:20:37.293Z,14.11
2022-10-28T17:23:04.450Z,14.08
2022-10-28T17:25:31.448Z,14.09
2022-10-28T17:27:58.168Z,14.28
2022-10-28T17:30:25.957Z,14.22
2022-10-28T17:32:53.873Z,13.93
2022-10-28T17:35:22.390Z,13.69
2022-10-28T17:37:49.831Z,13.54
2022-10-28T17:40:18.410Z,13.50
2022-10-28T17:42:44.816Z,13.54
2022-10-28T17:45:11.769Z,13.37
2022-10-28T17:47:38.291Z,13.37
2022-10-28T17:50:07.385Z,13.46
2022-10-28T17:52:38.216Z,13.46
2022-10-28T17:55:05.499Z,13.15
2022-10-28T17:57:31.946Z,13.59
2022-10-28T17:59:58.321Z,13.53
2022-10-28T18:02:25.064Z,13.63
2022-10-28T18:04:51.565Z,13.82
2022-10-28T18:07:18.018Z,13.76
2022-10-28T18:09:44.489Z,13.45
2022-10-28T18:12:12.492Z,13.33
2022-10-28T18:14:39.709Z,13.30
2022-10-28T18:17:14.782Z,13.61
2022-10-28T18:19:41.180Z,13.40
2022-10-28T18:22:07.569Z,13.25
2022-10-28T18:24:34.356Z,13.42
2022-10-28T18:27:00.770Z,13.13
2022-10-28T18:29:27.327Z,13.25
2022-10-28T18:31:55.077Z,13.17
2022-10-28T18:34:23.596Z,13.17
2022-10-28T18:36:50.095Z,13.06
2022-10-28T18:39:16.477Z,12.58
2022-10-28T18:41:43.772Z,12.69
2022-10-28T18:44:12.941Z,13.00
2022-10-28T18:46:41.082Z,13.11
2022-10-28T18:49:07.500Z,12.52
2022-10-28T18:51:34.527Z,12.78
2022-10-28T18:54:01.105Z,12.63
2022-10-28T18:56:29.315Z,12.89
2022-10-28T18:58:56.626Z,12.76
2022-10-28T19:01:27.730Z,12.73
2022-10-28T19:03:58.476Z,12.67
2022-10-28T19:06:27.361Z,12.60
2022-10-28T19:08:55.976Z,12.45
2022-10-28T19:11:29.806Z,11.99
2022-10-28T19:14:00.835Z,12.50
2022-10-28T19:16:28.484Z,12.39
2022-10-28T19:18:57.020Z,12.31
2022-10-28T19:21:24.450Z,12.40
2022-10-28T19:23:51.014Z,12.31
2022-10-28T19:26:17.986Z,12.34
2022-10-28T19:28:54.218Z,12.41
2022-10-28T19:31:23.629Z,12.41
2022-10-28T19:33:52.038Z,12.15
2022-10-28T19:36:21.177Z,12.04
2022-10-28T19:38:53.550Z,12.28
2022-10-28T19:41:23.734Z,12.26
2022-10-28T19:43:57.794Z,12.11
2022-10-28T19:46:26.319Z,11.76
2022-10-28T19:48:54.622Z,12.06
2022-10-28T19:51:23.735Z,12.01
2022-10-28T19:54:01.946Z,12.02
2022-10-28T19:56:30.328Z,11.95
2022-10-28T19:58:59.234Z,11.76
2022-10-28T20:01:29.970Z,11.71
2022-10-28T20:03:56.827Z,11.65
2022-10-28T20:06:26.038Z,11.57
2022-10-28T20:08:52.969Z,11.49
2022-10-28T20:11:31.638Z,11.49
2022-10-28T20:14:06.244Z,11.20
2022-10-28T20:16:32.947Z,11.16
2022-10-28T20:18:59.910Z,11.17
2022-10-28T20:21:28.860Z,11.17
2022-10-28T20:23:56.717Z,11.40
2022-10-28T20:26:28.048Z,11.17
2022-10-28T20:28:54.719Z,10.99
2022-10-28T20:31:23.682Z,11.01
2022-10-28T20:33:57.691Z,11.03
2022-10-28T20:36:31.530Z,10.85
2022-10-28T20:38:59.709Z,10.92
2022-10-28T20:41:28.830Z,10.63
2022-10-28T20:43:55.597Z,10.77
2022-10-28T20:46:23.700Z,10.86
2022-10-28T20:48:50.555Z,10.70
2022-10-28T20:51:18.094Z,10.53
2022-10-28T20:53:44.490Z,10.58
2022-10-28T20:56:23.318Z,10.56
2022-10-28T20:58:50.448Z,10.54
2022-10-28T21:01:25.159Z,10.57
2022-10-28T21:04:11.200Z,10.46
2022-10-28T21:06:38.697Z,10.45
2022-10-28T21:09:05.538Z,10.08
2022-10-28T21:11:32.004Z,10.45
2022-10-28T21:14:01.355Z,10.53
2022-10-28T21:16:29.334Z,10.52
2022-10-28T21:18:56.044Z,10.26
2022-10-28T21:21:24.227Z,10.24
2022-10-28T21:23:51.208Z,10.03
2022-10-28T21:26:17.913Z,10.00
2022-10-28T21:28:45.230Z,9.81
2022-10-28T21:31:14.716Z,9.96
2022-10-28T21:33:42.323Z,9.81
2022-10-28T21:36:16.805Z,9.97
2022-10-28T21:38:43.879Z,10.00
2022-10-28T21:41:14.831Z,9.98
2022-10-28T21:43:44.337Z,9.53
2022-10-28T21:46:15.405Z,9.78
2022-10-28T21:48:42.364Z,9.89
2022-10-28T21:51:13.541Z,9.95
2022-10-28T21:53:42.070Z,9.74
2022-10-28T21:56:16.510Z,9.95
2022-10-28T21:58:44.184Z,9.59
2022-10-28T22:01:13.444Z,9.50
2022-10-28T22:03:40.293Z,9.24
2022-10-28T22:06:07.414Z,9.39
2022-10-28T22:08:34.107Z,9.42
2022-10-28T22:11:02.438Z,9.24
2022-10-28T22:13:29.136Z,9.15
2022-10-28T22:15:57.506Z,9.29
2022-10-28T22:18:23.938Z,9.33
2022-10-28T22:20:50.331Z,9.13
2022-10-28T22:23:16.729Z,9.24
2022-10-28T22:25:43.113Z,9.23
2022-10-28T22:28:09.505Z,9.21
2022-10-28T22:30:35.888Z,9.24
2022-10-28T22:33:02.290Z,9.20
2022-10-28T22:35:28.663Z,9.06
2022-10-28T22:37:55.334Z,9.03
2022-10-28T22:40:21.905Z,8.95
2022-10-28T22:42:48.302Z,8.92
2022-10-28T22:45:14.730Z,8.91
2022-10-28T22:47:41.135Z,8.87
2022-10-28T22:50:07.806Z,8.79
2022-10-28T22:52:34.202Z,8.69
2022-10-28T22:55:00.586Z,8.85
2022-10-28T22:57:26.982Z,8.80
2022-10-28T22:59:53.453Z,8.84
2022-10-28T23:02:19.983Z,8.85
2022-10-28T23:04:46.475Z,8.78
2022-10-28T23:07:12.882Z,8.62
2022-10-28T23:09:39.256Z,8.58
2022-10-28T23:12:06.026Z,8.48
2022-10-28T23:14:32.401Z,8.48
2022-10-28T23:16:59.589Z,8.52
2022-10-28T23:19:25.974Z,8.60
2022-10-28T23:21:52.371Z,8.42
2022-10-28T23:24:18.764Z,8.49
2022-10-28T23:26:45.279Z,8.58
2022-10-28T23:29:14.031Z,8.65
2022-10-28T23:31:43.572Z,8.67
2022-10-28T23:34:09.953Z,8.51
2022-10-28T23:36:36.409Z,8.62
2022-10-28T23:39:02.889Z,8.87
2022-10-28T23:41:29.290Z,8.68
2022-10-28T23:43:55.658Z,8.54
2022-10-28T23:46:22.098Z,8.66
2022-10-28T23:48:48.543Z,8.67
2022-10-28T23:51:15.018Z,8.80
2022-10-28T23:53:41.402Z,8.63
2022-10-28T23:56:07.937Z,8.48
2022-10-28T23:58:40.374Z,8.48
